CST,Max TemperatureF,Mean TemperatureF,Min TemperatureF,Max Dew PointF,MeanDew PointF,Min DewpointF,Max Humidity, Mean Humidity, Min Humidity, Max Sea Level PressureIn, Mean Sea Level PressureIn, Min Sea Level PressureIn, Max VisibilityMiles, Mean VisibilityMiles, Min VisibilityMiles, Max Wind SpeedMPH, Mean Wind SpeedMPH, Max Gust SpeedMPH,PrecipitationIn, CloudCover, Events, WindDirDegrees
2013-1-1,51,40,30,26,23,21,74,52,31,30.26,30.17,30.10,10,10,10,14,8,12,0.00,0,,312
2013-1-2,50,36,23,26,23,19,81,61,36,30.30,30.22,30.15,10,10,10,9,4,,0.00,0,,22
2013-1-3,34,32,29,32,27,20,96,82,67,30.44,30.36,30.25,10,6,1,12,6,,0.00,6,Rain-Snow,62
2013-1-4,33,30,27,31,29,27,97,93,86,30.44,30.37,30.31,10,8,2,7,2,,0.01,7,Rain-Snow,80
2013-1-5,50,35,20,34,28,19,97,78,47,30.35,30.28,30.23,10,9,0,22,7,25,0.01,0,Fog,248
2013-1-6,49,36,24,30,26,22,92,73,41,30.47,30.37,30.24,10,10,10,8,5,,0.00,0,,312
2013-1-7,52,40,28,35,30,26,92,78,47,30.23,30.07,29.93,10,10,10,13,5,,0.00,0,,72
2013-1-8,42,35,28,35,32,27,95,86,73,30.12,29.98,29.92,10,9,4,13,4,,0.00,5,,305
2013-1-9,41,38,36,39,37,34,96,92,87,30.23,30.12,30.07,10,4,2,24,13,31,0.02,8,Rain,307
2013-1-10,61,48,36,40,37,34,93,76,41,30.09,30.00,29.90,10,10,10,21,12,26,0.01,2,,252
2013-1-11,71,54,36,44,36,30,95,69,22,29.90,29.80,29.72,10,10,7,17,4,24,0.00,0,,275
2013-1-12,49,40,32,37,25,15,85,57,26,30.03,29.91,29.85,10,10,10,20,6,26,0.01,0,,301
2013-1-13,41,33,25,25,22,18,82,65,45,30.23,30.11,30.04,10,10,10,13,8,,0.00,0,,52
2013-1-14,35,29,23,23,20,16,86,72,55,30.23,30.16,30.10,10,10,10,13,8,,0.00,3,,48
2013-1-15,37,30,22,22,19,16,84,68,47,30.30,30.22,30.14,10,10,10,10,7,,0.00,3,,319
2013-1-16,54,38,22,26,18,11,84,54,24,30.38,30.31,30.26,10,10,10,14,9,17,0.00,0,,272
2013-1-17,57,42,26,30,24,18,83,63,33,30.54,30.45,30.38,10,10,10,12,5,,0.00,0,,283
2013-1-18,61,43,25,34,29,23,92,71,33,30.45,30.32,30.19,10,10,10,7,1,,0.00,0,,40
2013-1-19,68,48,29,32,28,26,90,58,21,30.26,30.19,30.13,10,10,10,8,3,,0.00,0,,273
2013-1-20,65,44,24,30,26,21,87,56,22,30.29,30.19,30.08,10,10,10,10,4,,0.00,0,,253
2013-1-21,55,44,32,31,27,22,83,60,36,30.34,30.22,30.12,10,10,10,12,5,,0.00,0,,301
2013-1-22,68,48,27,36,31,24,91,69,29,30.26,30.20,30.13,10,10,10,8,3,,0.00,0,,245
2013-1-23,78,54,30,36,31,27,90,59,15,30.30,30.21,30.16,10,10,10,18,5,24,0.00,0,,217
2013-1-24,81,58,35,38,33,31,85,53,18,30.24,30.17,30.09,10,10,10,17,5,22,0.00,0,,242
2013-1-25,73,60,46,44,37,34,66,47,26,30.20,30.13,30.07,10,10,10,12,6,,0.00,0,,320
2013-1-26,67,55,43,46,40,36,75,62,42,30.15,30.05,29.93,10,10,10,8,4,,0.00,1,,28
2013-1-27,77,62,46,46,42,38,83,58,24,30.02,29.96,29.89,10,10,10,20,6,28,0.00,2,,261
2013-1-28,77,56,36,43,35,28,90,57,16,29.96,29.88,29.75,10,10,7,16,5,23,0.00,0,,202
2013-1-29,57,48,40,35,25,14,66,42,25,29.97,29.83,29.74,10,10,1,51,16,59,0.00,2,,270
2013-1-30,54,41,28,23,15,6,73,43,14,30.25,30.14,29.98,10,10,10,24,12,34,0.00,0,,256
2013-1-31,61,42,24,20,15,12,67,48,17,30.26,30.19,30.16,10,10,7,8,4,,0.00,0,,217